sensor_id;sensor_type;location;lat;lon;timestamp;P1;durP1;ratioP1;P2;durP2;ratioP2
57071;SDS011;42956;51.366;11.298;2023-08-31T06:31:03;19.08;;;9.77;;
57071;SDS011;42956;51.366;11.298;2023-08-31T06:33:33;14.25;;;9.10;;
57071;SDS011;42956;51.366;11.298;2023-08-31T06:36:03;21.02;;;9.25;;
57071;SDS011;42956;51.366;11.298;2023-08-31T06:38:33;12.30;;;8.20;;
57071;SDS011;42956;51.366;11.298;2023-08-31T06:41:04;10.38;;;7.65;;
57071;SDS011;42956;51.366;11.298;2023-08-31T06:43:34;14.98;;;8.48;;
57071;SDS011;42956;51.366;11.298;2023-08-31T06:46:06;10.80;;;7.60;;
57071;SDS011;42956;51.366;11.298;2023-08-31T06:48:43;10.60;;;7.10;;
57071;SDS011;42956;51.366;11.298;2023-08-31T06:51:13;10.30;;;6.28;;
57071;SDS011;42956;51.366;11.298;2023-08-31T06:53:43;9.80;;;7.38;;
57071;SDS011;42956;51.366;11.298;2023-08-31T06:56:13;14.82;;;6.70;;
57071;SDS011;42956;51.366;11.298;2023-08-31T06:58:43;10.18;;;7.13;;
57071;SDS011;42956;51.366;11.298;2023-08-31T07:01:16;10.77;;;6.53;;
57071;SDS011;42956;51.366;11.298;2023-08-31T07:03:46;10.38;;;6.78;;
57071;SDS011;42956;51.366;11.298;2023-08-31T07:06:16;11.75;;;7.63;;
57071;SDS011;42956;51.366;11.298;2023-08-31T07:08:46;12.38;;;7.18;;
57071;SDS011;42956;51.366;11.298;2023-08-31T07:11:17;8.30;;;5.82;;
57071;SDS011;42956;51.366;11.298;2023-08-31T07:13:47;13.07;;;6.50;;
57071;SDS011;42956;51.366;11.298;2023-08-31T07:16:19;16.88;;;5.68;;
57071;SDS011;42956;51.366;11.298;2023-08-31T07:18:49;13.18;;;6.05;;
57071;SDS011;42956;51.366;11.298;2023-08-31T07:21:19;15.60;;;6.93;;
57071;SDS011;42956;51.366;11.298;2023-08-31T07:23:49;9.95;;;5.28;;
57071;SDS011;42956;51.366;11.298;2023-08-31T07:26:20;6.93;;;5.35;;
57071;SDS011;42956;51.366;11.298;2023-08-31T07:28:50;6.35;;;5.13;;
57071;SDS011;42956;51.366;11.298;2023-08-31T07:31:22;19.00;;;9.90;;
57071;SDS011;42956;51.366;11.298;2023-08-31T07:33:52;10.73;;;6.10;;
57071;SDS011;42956;51.366;11.298;2023-08-31T07:36:22;8.93;;;6.43;;
57071;SDS011;42956;51.366;11.298;2023-08-31T07:38:52;9.57;;;5.20;;
57071;SDS011;42956;51.366;11.298;2023-08-31T07:41:22;7.53;;;5.60;;
57071;SDS011;42956;51.366;11.298;2023-08-31T07:43:53;9.70;;;5.25;;
57071;SDS011;42956;51.366;11.298;2023-08-31T07:46:33;9.65;;;6.15;;
57071;SDS011;42956;51.366;11.298;2023-08-31T07:49:03;7.97;;;6.70;;
57071;SDS011;42956;51.366;11.298;2023-08-31T07:51:33;11.02;;;7.32;;
57071;SDS011;42956;51.366;11.298;2023-08-31T07:54:03;9.35;;;6.82;;
57071;SDS011;42956;51.366;11.298;2023-08-31T07:56:33;11.10;;;6.93;;
57071;SDS011;42956;51.366;11.298;2023-08-31T07:59:03;11.25;;;7.60;;
57071;SDS011;42956;51.366;11.298;2023-08-31T08:01:36;7.53;;;6.70;;
57071;SDS011;42956;51.366;11.298;2023-08-31T08:04:06;14.27;;;7.00;;
57071;SDS011;42956;51.366;11.298;2023-08-31T08:06:36;10.02;;;6.97;;
57071;SDS011;42956;51.366;11.298;2023-08-31T08:09:06;9.77;;;6.40;;
57071;SDS011;42956;51.366;11.298;2023-08-31T08:11:36;8.48;;;5.93;;
57071;SDS011;42956;51.366;11.298;2023-08-31T08:14:06;9.05;;;5.90;;
57071;SDS011;42956;51.366;11.298;2023-08-31T08:16:39;9.35;;;7.15;;
57071;SDS011;42956;51.366;11.298;2023-08-31T08:19:09;9.23;;;6.97;;
57071;SDS011;42956;51.366;11.298;2023-08-31T08:21:38;10.43;;;8.40;;
57071;SDS011;42956;51.366;11.298;2023-08-31T08:24:08;9.82;;;7.57;;
57071;SDS011;42956;51.366;11.298;2023-08-31T08:26:38;10.00;;;7.18;;
57071;SDS011;42956;51.366;11.298;2023-08-31T08:29:08;9.43;;;7.22;;
57071;SDS011;42956;51.366;11.298;2023-08-31T08:31:41;9.00;;;6.90;;
57071;SDS011;42956;51.366;11.298;2023-08-31T08:34:11;11.07;;;5.95;;
57071;SDS011;42956;51.366;11.298;2023-08-31T08:36:41;9.00;;;6.10;;
57071;SDS011;42956;51.366;11.298;2023-08-31T08:39:11;11.82;;;5.85;;
57071;SDS011;42956;51.366;11.298;2023-08-31T08:41:40;7.40;;;6.18;;
57071;SDS011;42956;51.366;11.298;2023-08-31T08:44:10;8.50;;;5.45;;
57071;SDS011;42956;51.366;11.298;2023-08-31T08:46:45;9.10;;;4.38;;
57071;SDS011;42956;51.366;11.298;2023-08-31T08:49:15;7.32;;;3.92;;
57071;SDS011;42956;51.366;11.298;2023-08-31T08:51:45;7.80;;;4.75;;
57071;SDS011;42956;51.366;11.298;2023-08-31T08:54:18;7.47;;;4.10;;
57071;SDS011;42956;51.366;11.298;2023-08-31T08:56:48;6.55;;;4.40;;
57071;SDS011;42956;51.366;11.298;2023-08-31T08:59:18;7.72;;;3.88;;
57071;SDS011;42956;51.366;11.298;2023-08-31T09:01:50;5.03;;;3.80;;
57071;SDS011;42956;51.366;11.298;2023-08-31T09:04:20;9.05;;;4.93;;
57071;SDS011;42956;51.366;11.298;2023-08-31T09:06:51;9.23;;;4.18;;
57071;SDS011;42956;51.366;11.298;2023-08-31T09:09:21;4.00;;;3.58;;
57071;SDS011;42956;51.366;11.298;2023-08-31T09:11:51;5.28;;;4.13;;
57071;SDS011;42956;51.366;11.298;2023-08-31T09:14:22;6.18;;;3.72;;
57071;SDS011;42956;51.366;11.298;2023-08-31T09:16:55;4.70;;;3.38;;
57071;SDS011;42956;51.366;11.298;2023-08-31T09:19:25;8.20;;;3.88;;
57071;SDS011;42956;51.366;11.298;2023-08-31T09:21:56;7.55;;;4.22;;
57071;SDS011;42956;51.366;11.298;2023-08-31T09:24:26;9.90;;;3.47;;
57071;SDS011;42956;51.366;11.298;2023-08-31T09:26:57;8.88;;;4.00;;
57071;SDS011;42956;51.366;11.298;2023-08-31T09:29:27;4.53;;;3.25;;
57071;SDS011;42956;51.366;11.298;2023-08-31T09:32:00;6.47;;;3.83;;
57071;SDS011;42956;51.366;11.298;2023-08-31T09:37:03;8.25;;;3.70;;
57071;SDS011;42956;51.366;11.298;2023-08-31T09:39:35;7.45;;;2.95;;
57071;SDS011;42956;51.366;11.298;2023-08-31T09:42:06;4.95;;;2.80;;
57071;SDS011;42956;51.366;11.298;2023-08-31T09:44:39;3.63;;;2.80;;
57071;SDS011;42956;51.366;11.298;2023-08-31T09:49:41;5.35;;;2.72;;
57071;SDS011;42956;51.366;11.298;2023-08-31T09:52:12;5.60;;;2.72;;
57071;SDS011;42956;51.366;11.298;2023-08-31T09:54:42;4.38;;;2.47;;
57071;SDS011;42956;51.366;11.298;2023-08-31T09:57:12;3.30;;;2.35;;
57071;SDS011;42956;51.366;11.298;2023-08-31T09:59:50;6.47;;;2.42;;
57071;SDS011;42956;51.366;11.298;2023-08-31T10:02:20;4.43;;;2.10;;
57071;SDS011;42956;51.366;11.298;2023-08-31T10:04:52;8.48;;;2.20;;
57071;SDS011;42956;51.366;11.298;2023-08-31T10:09:53;3.92;;;2.10;;
57071;SDS011;42956;51.366;11.298;2023-08-31T10:12:23;3.50;;;1.90;;
57071;SDS011;42956;51.366;11.298;2023-08-31T10:14:53;5.50;;;2.10;;
57071;SDS011;42956;51.366;11.298;2023-08-31T10:17:23;3.40;;;2.05;;
57071;SDS011;42956;51.366;11.298;2023-08-31T10:19:57;3.90;;;2.10;;
57071;SDS011;42956;51.366;11.298;2023-08-31T10:22:27;3.47;;;1.80;;
57071;SDS011;42956;51.366;11.298;2023-08-31T10:24:57;3.38;;;1.70;;
57071;SDS011;42956;51.366;11.298;2023-08-31T10:27:28;2.25;;;1.70;;
57071;SDS011;42956;51.366;11.298;2023-08-31T10:29:58;5.15;;;1.60;;
57071;SDS011;42956;51.366;11.298;2023-08-31T10:32:42;6.32;;;1.98;;
57071;SDS011;42956;51.366;11.298;2023-08-31T10:35:15;3.67;;;1.55;;
57071;SDS011;42956;51.366;11.298;2023-08-31T10:37:45;2.70;;;1.50;;
57071;SDS011;42956;51.366;11.298;2023-08-31T10:40:15;4.20;;;1.90;;
57071;SDS011;42956;51.366;11.298;2023-08-31T10:42:45;5.45;;;2.30;;
57071;SDS011;42956;51.366;11.298;2023-08-31T10:45:19;6.70;;;3.10;;
57071;SDS011;42956;51.366;11.298;2023-08-31T10:47:49;2.15;;;1.80;;
57071;SDS011;42956;51.366;11.298;2023-08-31T10:50:22;4.78;;;1.95;;
57071;SDS011;42956;51.366;11.298;2023-08-31T10:55:22;3.22;;;1.95;;
57071;SDS011;42956;51.366;11.298;2023-08-31T10:57:53;4.40;;;1.98;;
57071;SDS011;42956;51.366;11.298;2023-08-31T11:02:56;2.88;;;1.60;;
57071;SDS011;42956;51.366;11.298;2023-08-31T11:05:29;4.50;;;2.45;;
57071;SDS011;42956;51.366;11.298;2023-08-31T11:07:58;4.30;;;2.08;;
57071;SDS011;42956;51.366;11.298;2023-08-31T11:10:30;4.68;;;2.20;;
57071;SDS011;42956;51.366;11.298;2023-08-31T11:13:00;4.15;;;1.90;;
57071;SDS011;42956;51.366;11.298;2023-08-31T11:15:30;3.13;;;1.70;;
57071;SDS011;42956;51.366;11.298;2023-08-31T11:18:00;3.78;;;2.17;;
57071;SDS011;42956;51.366;11.298;2023-08-31T11:20:33;5.25;;;1.90;;
57071;SDS011;42956;51.366;11.298;2023-08-31T11:23:03;2.85;;;1.92;;
57071;SDS011;42956;51.366;11.298;2023-08-31T11:25:33;2.92;;;1.70;;
57071;SDS011;42956;51.366;11.298;2023-08-31T11:28:05;3.90;;;2.30;;
57071;SDS011;42956;51.366;11.298;2023-08-31T11:30:36;3.43;;;2.10;;
57071;SDS011;42956;51.366;11.298;2023-08-31T11:33:07;2.72;;;1.95;;
57071;SDS011;42956;51.366;11.298;2023-08-31T11:35:41;6.22;;;2.10;;
57071;SDS011;42956;51.366;11.298;2023-08-31T11:38:13;3.05;;;1.95;;
57071;SDS011;42956;51.366;11.298;2023-08-31T11:40:43;2.70;;;1.65;;
57071;SDS011;42956;51.366;11.298;2023-08-31T11:43:14;3.55;;;2.00;;
57071;SDS011;42956;51.366;11.298;2023-08-31T11:45:45;3.63;;;2.03;;
57071;SDS011;42956;51.366;11.298;2023-08-31T11:48:15;3.33;;;2.22;;
57071;SDS011;42956;51.366;11.298;2023-08-31T11:50:47;3.58;;;2.00;;
57071;SDS011;42956;51.366;11.298;2023-08-31T11:53:19;2.15;;;1.70;;
57071;SDS011;42956;51.366;11.298;2023-08-31T11:55:49;5.40;;;1.95;;
57071;SDS011;42956;51.366;11.298;2023-08-31T11:58:20;3.70;;;1.60;;
57071;SDS011;42956;51.366;11.298;2023-08-31T12:00:54;3.17;;;1.85;;
57071;SDS011;42956;51.366;11.298;2023-08-31T12:03:24;5.05;;;1.75;;
57071;SDS011;42956;51.366;11.298;2023-08-31T12:06:17;2.47;;;1.70;;
57071;SDS011;42956;51.366;11.298;2023-08-31T12:08:48;2.42;;;1.83;;
57071;SDS011;42956;51.366;11.298;2023-08-31T12:11:18;2.60;;;1.58;;
57071;SDS011;42956;51.366;11.298;2023-08-31T12:13:49;3.28;;;1.80;;
57071;SDS011;42956;51.366;11.298;2023-08-31T12:16:19;2.38;;;1.73;;
57071;SDS011;42956;51.366;11.298;2023-08-31T12:18:49;6.60;;;2.17;;
57071;SDS011;42956;51.366;11.298;2023-08-31T12:21:22;4.70;;;1.67;;
57071;SDS011;42956;51.366;11.298;2023-08-31T12:23:54;4.82;;;2.15;;
57071;SDS011;42956;51.366;11.298;2023-08-31T12:26:24;1.73;;;1.40;;
57071;SDS011;42956;51.366;11.298;2023-08-31T12:28:54;3.55;;;1.55;;
57071;SDS011;42956;51.366;11.298;2023-08-31T12:31:24;4.38;;;2.13;;
57071;SDS011;42956;51.366;11.298;2023-08-31T12:33:54;5.55;;;1.70;;
57071;SDS011;42956;51.366;11.298;2023-08-31T12:36:26;2.13;;;1.52;;
57071;SDS011;42956;51.366;11.298;2023-08-31T12:38:56;1.92;;;1.63;;
57071;SDS011;42956;51.366;11.298;2023-08-31T12:41:28;3.50;;;1.45;;
57071;SDS011;42956;51.366;11.298;2023-08-31T12:43:58;2.72;;;1.10;;
57071;SDS011;42956;51.366;11.298;2023-08-31T12:46:28;1.83;;;1.60;;
57071;SDS011;42956;51.366;11.298;2023-08-31T12:48:58;4.28;;;1.88;;
57071;SDS011;42956;51.366;11.298;2023-08-31T12:51:32;4.43;;;1.73;;
57071;SDS011;42956;51.366;11.298;2023-08-31T12:54:02;1.95;;;1.40;;
57071;SDS011;42956;51.366;11.298;2023-08-31T12:56:32;3.42;;;1.77;;
57071;SDS011;42956;51.366;11.298;2023-08-31T12:59:02;1.80;;;1.50;;
57071;SDS011;42956;51.366;11.298;2023-08-31T13:01:32;2.08;;;1.60;;
57071;SDS011;42956;51.366;11.298;2023-08-31T13:04:03;2.38;;;1.67;;
57071;SDS011;42956;51.366;11.298;2023-08-31T13:06:35;2.78;;;1.42;;
57071;SDS011;42956;51.366;11.298;2023-08-31T13:09:05;4.32;;;1.88;;
57071;SDS011;42956;51.366;11.298;2023-08-31T13:11:34;2.92;;;1.83;;
57071;SDS011;42956;51.366;11.298;2023-08-31T13:14:04;2.13;;;1.40;;
57071;SDS011;42956;51.366;11.298;2023-08-31T13:16:34;2.60;;;1.60;;
57071;SDS011;42956;51.366;11.298;2023-08-31T13:19:07;1.50;;;1.23;;
57071;SDS011;42956;51.366;11.298;2023-08-31T13:21:40;0.95;;;0.70;;
57071;SDS011;42956;51.366;11.298;2023-08-31T13:24:10;0.70;;;0.70;;
57071;SDS011;42956;51.366;11.298;2023-08-31T13:26:41;2.75;;;0.80;;
57071;SDS011;42956;51.366;11.298;2023-08-31T13:29:15;1.33;;;0.88;;
57071;SDS011;42956;51.366;11.298;2023-08-31T13:31:50;2.08;;;0.85;;
57071;SDS011;42956;51.366;11.298;2023-08-31T13:34:20;2.90;;;0.85;;
57071;SDS011;42956;51.366;11.298;2023-08-31T13:36:55;1.25;;;0.88;;
57071;SDS011;42956;51.366;11.298;2023-08-31T13:39:27;3.85;;;0.70;;
57071;SDS011;42956;51.366;11.298;2023-08-31T13:41:57;1.73;;;0.80;;
57071;SDS011;42956;51.366;11.298;2023-08-31T13:44:30;0.65;;;0.65;;
57071;SDS011;42956;51.366;11.298;2023-08-31T13:47:00;1.40;;;0.68;;
57071;SDS011;42956;51.366;11.298;2023-08-31T13:49:30;1.05;;;0.73;;
57071;SDS011;42956;51.366;11.298;2023-08-31T13:52:05;3.00;;;0.55;;
57071;SDS011;42956;51.366;11.298;2023-08-31T13:54:40;2.08;;;0.55;;
57071;SDS011;42956;51.366;11.298;2023-08-31T13:57:10;1.00;;;0.77;;
57071;SDS011;42956;51.366;11.298;2023-08-31T13:59:44;1.65;;;0.75;;
57071;SDS011;42956;51.366;11.298;2023-08-31T14:02:14;1.60;;;0.50;;
57071;SDS011;42956;51.366;11.298;2023-08-31T14:04:44;1.58;;;0.90;;
57071;SDS011;42956;51.366;11.298;2023-08-31T14:07:17;1.58;;;0.77;;
57071;SDS011;42956;51.366;11.298;2023-08-31T14:09:47;1.20;;;1.00;;
57071;SDS011;42956;51.366;11.298;2023-08-31T14:12:17;1.52;;;0.77;;
57071;SDS011;42956;51.366;11.298;2023-08-31T14:14:48;1.45;;;0.90;;
57071;SDS011;42956;51.366;11.298;2023-08-31T14:17:18;1.77;;;0.98;;
57071;SDS011;42956;51.366;11.298;2023-08-31T14:19:48;1.40;;;1.05;;
57071;SDS011;42956;51.366;11.298;2023-08-31T14:22:21;1.58;;;1.08;;
57071;SDS011;42956;51.366;11.298;2023-08-31T14:24:51;2.53;;;1.17;;
57071;SDS011;42956;51.366;11.298;2023-08-31T14:27:21;1.10;;;1.00;;
57071;SDS011;42956;51.366;11.298;2023-08-31T14:29:51;1.70;;;1.10;;
57071;SDS011;42956;51.366;11.298;2023-08-31T14:32:21;1.42;;;1.00;;
57071;SDS011;42956;51.366;11.298;2023-08-31T14:34:53;2.58;;;1.45;;
57071;SDS011;42956;51.366;11.298;2023-08-31T14:37:26;1.33;;;1.23;;
57071;SDS011;42956;51.366;11.298;2023-08-31T14:39:56;1.67;;;1.00;;
57071;SDS011;42956;51.366;11.298;2023-08-31T14:42:26;1.63;;;1.00;;
57071;SDS011;42956;51.366;11.298;2023-08-31T14:44:56;2.30;;;1.25;;
57071;SDS011;42956;51.366;11.298;2023-08-31T14:47:26;1.52;;;1.30;;
57071;SDS011;42956;51.366;11.298;2023-08-31T14:49:56;1.70;;;1.30;;
57071;SDS011;42956;51.366;11.298;2023-08-31T14:52:28;2.33;;;1.05;;
57071;SDS011;42956;51.366;11.298;2023-08-31T14:54:59;1.70;;;1.60;;
57071;SDS011;42956;51.366;11.298;2023-08-31T14:57:30;2.07;;;1.10;;
57071;SDS011;42956;51.366;11.298;2023-08-31T15:00:03;3.13;;;1.33;;
57071;SDS011;42956;51.366;11.298;2023-08-31T15:02:35;1.70;;;1.40;;
57071;SDS011;42956;51.366;11.298;2023-08-31T15:05:05;1.75;;;1.27;;
57071;SDS011;42956;51.366;11.298;2023-08-31T15:07:38;2.35;;;1.10;;
57071;SDS011;42956;51.366;11.298;2023-08-31T15:10:08;2.60;;;1.30;;
57071;SDS011;42956;51.366;11.298;2023-08-31T15:12:38;2.53;;;1.17;;
57071;SDS011;42956;51.366;11.298;2023-08-31T15:15:08;3.15;;;1.52;;
57071;SDS011;42956;51.366;11.298;2023-08-31T15:17:38;3.45;;;1.63;;
57071;SDS011;42956;51.366;11.298;2023-08-31T15:20:10;5.78;;;2.85;;
57071;SDS011;42956;51.366;11.298;2023-08-31T15:22:43;3.53;;;2.25;;
57071;SDS011;42956;51.366;11.298;2023-08-31T15:25:13;3.30;;;2.03;;
57071;SDS011;42956;51.366;11.298;2023-08-31T15:27:43;2.50;;;1.77;;
57071;SDS011;42956;51.366;11.298;2023-08-31T15:30:13;2.03;;;1.40;;
57071;SDS011;42956;51.366;11.298;2023-08-31T15:32:43;3.00;;;2.03;;
57071;SDS011;42956;51.366;11.298;2023-08-31T15:35:12;2.80;;;1.67;;
57071;SDS011;42956;51.366;11.298;2023-08-31T15:37:45;3.60;;;1.83;;
57071;SDS011;42956;51.366;11.298;2023-08-31T15:40:18;5.47;;;2.05;;
57071;SDS011;42956;51.366;11.298;2023-08-31T15:42:48;2.47;;;1.50;;
57071;SDS011;42956;51.366;11.298;2023-08-31T15:45:18;3.38;;;1.98;;
57071;SDS011;42956;51.366;11.298;2023-08-31T15:47:48;7.45;;;5.45;;
57071;SDS011;42956;51.366;11.298;2023-08-31T15:50:18;21.63;;;12.20;;
57071;SDS011;42956;51.366;11.298;2023-08-31T15:52:50;23.75;;;12.48;;
57071;SDS011;42956;51.366;11.298;2023-08-31T15:55:21;20.02;;;12.82;;
57071;SDS011;42956;51.366;11.298;2023-08-31T15:57:51;10.63;;;7.22;;
57071;SDS011;42956;51.366;11.298;2023-08-31T16:00:21;18.88;;;7.93;;
57071;SDS011;42956;51.366;11.298;2023-08-31T16:02:51;11.20;;;7.47;;
57071;SDS011;42956;51.366;11.298;2023-08-31T16:05:22;10.07;;;5.55;;
57071;SDS011;42956;51.366;11.298;2023-08-31T16:07:54;5.60;;;3.78;;
57071;SDS011;42956;51.366;11.298;2023-08-31T16:10:24;7.20;;;3.75;;
57071;SDS011;42956;51.366;11.298;2023-08-31T16:12:55;7.70;;;3.78;;
57071;SDS011;42956;51.366;11.298;2023-08-31T16:15:26;9.93;;;3.95;;
57071;SDS011;42956;51.366;11.298;2023-08-31T16:17:56;10.90;;;2.25;;
57071;SDS011;42956;51.366;11.298;2023-08-31T16:20:26;4.25;;;2.53;;
57071;SDS011;42956;51.366;11.298;2023-08-31T16:22:59;6.78;;;3.05;;
57071;SDS011;42956;51.366;11.298;2023-08-31T16:25:30;7.60;;;2.35;;
57071;SDS011;42956;51.366;11.298;2023-08-31T16:28:00;4.70;;;2.78;;
57071;SDS011;42956;51.366;11.298;2023-08-31T16:30:30;6.55;;;2.75;;
57071;SDS011;42956;51.366;11.298;2023-08-31T16:33:00;3.70;;;2.25;;
57071;SDS011;42956;51.366;11.298;2023-08-31T16:35:30;4.88;;;2.80;;
57071;SDS011;42956;51.366;11.298;2023-08-31T16:38:03;4.35;;;2.55;;
57071;SDS011;42956;51.366;11.298;2023-08-31T16:40:34;3.85;;;2.67;;
57071;SDS011;42956;51.366;11.298;2023-08-31T16:43:04;2.88;;;1.85;;
57071;SDS011;42956;51.366;11.298;2023-08-31T16:45:34;6.00;;;2.38;;
57071;SDS011;42956;51.366;11.298;2023-08-31T16:48:04;4.20;;;3.13;;
57071;SDS011;42956;51.366;11.298;2023-08-31T16:50:35;6.97;;;3.65;;
57071;SDS011;42956;51.366;11.298;2023-08-31T16:53:08;6.18;;;2.55;;
57071;SDS011;42956;51.366;11.298;2023-08-31T16:55:38;3.03;;;2.72;;
57071;SDS011;42956;51.366;11.298;2023-08-31T16:58:09;2.88;;;2.20;;
57071;SDS011;42956;51.366;11.298;2023-08-31T17:00:39;3.80;;;2.20;;
57071;SDS011;42956;51.366;11.298;2023-08-31T17:03:09;5.63;;;2.20;;
57071;SDS011;42956;51.366;11.298;2023-08-31T17:05:39;4.95;;;2.58;;
57071;SDS011;42956;51.366;11.298;2023-08-31T17:08:12;4.43;;;2.25;;
57071;SDS011;42956;51.366;11.298;2023-08-31T17:10:42;5.55;;;2.33;;
57071;SDS011;42956;51.366;11.298;2023-08-31T17:13:11;5.55;;;2.40;;
57071;SDS011;42956;51.366;11.298;2023-08-31T17:15:41;3.45;;;2.00;;
57071;SDS011;42956;51.366;11.298;2023-08-31T17:18:12;3.83;;;2.47;;
57071;SDS011;42956;51.366;11.298;2023-08-31T17:20:42;4.68;;;2.75;;
57071;SDS011;42956;51.366;11.298;2023-08-31T17:23:14;3.65;;;2.83;;
57071;SDS011;42956;51.366;11.298;2023-08-31T17:25:44;3.53;;;2.80;;
57071;SDS011;42956;51.366;11.298;2023-08-31T17:28:14;4.35;;;2.92;;
57071;SDS011;42956;51.366;11.298;2023-08-31T17:30:44;9.70;;;3.28;;
57071;SDS011;42956;51.366;11.298;2023-08-31T17:33:14;5.18;;;2.88;;
57071;SDS011;42956;51.366;11.298;2023-08-31T17:35:44;4.25;;;1.85;;
57071;SDS011;42956;51.366;11.298;2023-08-31T17:38:17;4.68;;;2.53;;
57071;SDS011;42956;51.366;11.298;2023-08-31T17:40:48;2.90;;;2.35;;
57071;SDS011;42956;51.366;11.298;2023-08-31T17:43:18;2.70;;;2.35;;
57071;SDS011;42956;51.366;11.298;2023-08-31T17:45:48;2.67;;;2.30;;
57071;SDS011;42956;51.366;11.298;2023-08-31T17:48:18;3.97;;;2.80;;
57071;SDS011;42956;51.366;11.298;2023-08-31T17:50:48;11.48;;;2.10;;
57071;SDS011;42956;51.366;11.298;2023-08-31T17:53:20;3.33;;;1.45;;
57071;SDS011;42956;51.366;11.298;2023-08-31T17:55:50;2.08;;;1.10;;
57071;SDS011;42956;51.366;11.298;2023-08-31T17:58:20;3.30;;;0.90;;
57071;SDS011;42956;51.366;11.298;2023-08-31T18:00:50;2.67;;;0.95;;
57071;SDS011;42956;51.366;11.298;2023-08-31T18:03:21;5.70;;;2.33;;
57071;SDS011;42956;51.366;11.298;2023-08-31T18:05:51;7.90;;;3.90;;
57071;SDS011;42956;51.366;11.298;2023-08-31T18:08:25;5.03;;;3.33;;
57071;SDS011;42956;51.366;11.298;2023-08-31T18:10:55;6.75;;;3.13;;
